Time;durP1;ratioP1;P1;durP2;ratioP2;P2;SDS_P1;SDS_P2;PMS_P1;PMS_P2;Temp;Humidity;BMP_temperature;BMP_pressure;BME280_temperature;BME280_humidity;BME280_pressure;Samples;Min_cycle;Max_cycle;Signal;HPM_P1;HPM_P2
2022/12/16 00:00:48;;;;;;;;;5.00;5.00;;;;;19.35;52.45;100601.13;105880;1280;19391;-64
2022/12/16 00:03:22;;;;;;;;;7.00;7.00;;;;;19.35;52.32;100606.90;105873;1279;19632;-63
2022/12/16 00:05:49;;;;;;;;;5.00;5.00;;;;;19.34;52.33;100614.77;105827;1278;21738;-63
2022/12/16 00:08:17;;;;;;;;;7.00;7.00;;;;;19.35;52.37;100622.25;105866;1280;19257;-63
2022/12/16 00:10:53;;;;;;;;;7.50;6.00;;;;;19.35;52.19;100622.25;105790;1294;22983;-63
2022/12/16 00:13:21;;;;;;;;;8.00;7.50;;;;;19.35;52.24;100619.02;105895;1288;20172;-63
2022/12/16 00:15:48;;;;;;;;;5.00;5.00;;;;;19.35;52.25;100621.89;105779;1295;19268;-63
2022/12/16 00:18:18;;;;;;;;;5.00;5.00;;;;;19.35;52.31;100623.23;105665;1276;137894;-64
2022/12/16 00:20:45;;;;;;;;;5.00;5.00;;;;;19.34;52.09;100627.11;105746;1280;20074;-62
2022/12/16 00:23:12;;;;;;;;;7.00;7.00;;;;;19.33;52.11;100627.39;105777;1289;22210;-63
2022/12/16 00:25:40;;;;;;;;;7.00;4.00;;;;;19.34;52.37;100630.75;105782;1294;18486;-66
2022/12/16 00:28:07;;;;;;;;;7.00;5.00;;;;;19.33;52.07;100632.67;105917;1295;18523;-63
2022/12/16 00:30:34;;;;;;;;;6.00;5.00;;;;;19.33;52.02;100630.68;105890;1272;21388;-64
2022/12/16 00:33:02;;;;;;;;;7.00;7.00;;;;;19.34;52.24;100628.61;105819;1295;21871;-64
2022/12/16 00:35:29;;;;;;;;;5.00;5.00;;;;;19.32;51.99;100628.05;105782;1280;20555;-64
2022/12/16 00:37:57;;;;;;;;;5.00;5.00;;;;;19.33;51.90;100632.52;105747;1286;22749;-64
2022/12/16 00:40:24;;;;;;;;;7.50;7.00;;;;;19.33;52.10;100633.36;105748;1280;20990;-64
2022/12/16 00:42:51;;;;;;;;;7.00;5.00;;;;;19.32;51.97;100633.48;105669;1279;22700;-63
2022/12/16 00:45:19;;;;;;;;;6.00;6.00;;;;;19.32;52.20;100634.75;105754;1279;19270;-62
2022/12/16 00:47:47;;;;;;;;;7.00;5.00;;;;;19.31;51.82;100635.23;105825;1288;19480;-65
2022/12/16 00:50:14;;;;;;;;;7.00;7.00;;;;;19.31;51.86;100638.29;105747;1288;18982;-64
2022/12/16 00:52:41;;;;;;;;;7.00;7.00;;;;;19.31;52.01;100638.11;105716;1280;22489;-63
2022/12/16 00:55:09;;;;;;;;;7.00;7.00;;;;;19.32;51.77;100643.65;105799;1301;18488;-64
2022/12/16 00:57:36;;;;;;;;;8.00;7.00;;;;;19.31;51.89;100642.89;105785;1272;19906;-65
2022/12/16 01:00:04;;;;;;;;;8.00;5.00;;;;;19.31;52.02;100648.67;105739;1279;20736;-63
2022/12/16 01:02:31;;;;;;;;;5.00;5.00;;;;;19.30;52.18;100652.55;105796;1280;19626;-64
2022/12/16 01:04:59;;;;;;;;;5.00;5.00;;;;;19.31;51.86;100653.94;105871;1273;18521;-63
2022/12/16 01:07:26;;;;;;;;;8.00;5.67;;;;;19.30;51.77;100661.79;105897;1280;21609;-64
2022/12/16 01:09:53;;;;;;;;;6.00;5.00;;;;;19.30;51.77;100660.95;105881;1280;19494;-65
2022/12/16 01:12:21;;;;;;;;;5.00;5.00;;;;;19.29;51.95;100668.62;105852;1295;19758;-63
2022/12/16 01:14:48;;;;;;;;;7.50;7.50;;;;;19.29;52.00;100673.86;105724;1280;19251;-64
2022/12/16 01:17:16;;;;;;;;;7.00;5.00;;;;;19.30;51.77;100676.50;105765;1294;19520;-63
2022/12/16 01:19:43;;;;;;;;;8.00;8.00;;;;;19.30;51.71;100673.40;105877;1280;18495;-64
2022/12/16 01:22:10;;;;;;;;;5.00;5.00;;;;;19.29;51.94;100677.45;105915;1295;20786;-63
2022/12/16 01:24:38;;;;;;;;;5.00;5.00;;;;;19.29;52.04;100677.19;105800;1286;21157;-63
2022/12/16 01:27:05;;;;;;;;;5.00;5.00;;;;;19.29;51.80;100675.02;105858;1280;20117;-64
2022/12/16 01:29:32;;;;;;;;;7.00;5.00;;;;;19.28;51.67;100676.30;105842;1288;19394;-64
2022/12/16 01:32:00;;;;;;;;;5.00;4.00;;;;;19.28;51.74;100670.96;105846;1279;19608;-63
2022/12/16 01:34:27;;;;;;;;;6.00;4.50;;;;;19.28;51.69;100668.35;105912;1294;18527;-64
2022/12/16 01:36:54;;;;;;;;;7.00;7.00;;;;;19.29;51.83;100666.86;105906;1294;19255;-65
2022/12/16 01:39:22;;;;;;;;;4.00;4.00;;;;;19.27;51.54;100660.50;105868;1280;23834;-64
2022/12/16 01:41:49;;;;;;;;;8.00;8.00;;;;;19.27;51.88;100658.49;105882;1289;20085;-63
2022/12/16 01:44:17;;;;;;;;;5.00;5.00;;;;;19.28;51.79;100655.21;105885;1280;19481;-64
2022/12/16 01:46:44;;;;;;;;;7.00;7.00;;;;;19.27;51.52;100649.67;105838;1272;20328;-64
2022/12/16 01:49:11;;;;;;;;;6.00;5.00;;;;;19.27;51.77;100644.77;105946;1288;18630;-64
2022/12/16 01:51:39;;;;;;;;;7.00;7.00;;;;;19.27;51.56;100646.21;105872;1295;19302;-64
2022/12/16 01:54:06;;;;;;;;;5.00;5.00;;;;;19.26;51.54;100645.41;105869;1280;20610;-62
2022/12/16 01:56:33;;;;;;;;;5.00;4.00;;;;;19.25;51.74;100648.91;105823;1295;18524;-62
2022/12/16 01:59:01;;;;;;;;;5.00;5.00;;;;;19.26;51.57;100647.55;105834;1294;19336;-64
2022/12/16 02:01:28;;;;;;;;;7.00;7.00;;;;;19.26;51.39;100643.38;105879;1294;18403;-63
2022/12/16 02:03:55;;;;;;;;;10.00;8.00;;;;;19.25;51.69;100634.61;105915;1294;18532;-64
2022/12/16 02:06:22;;;;;;;;;8.00;6.00;;;;;19.26;51.59;100624.25;105879;1280;20593;-64
2022/12/16 02:08:50;;;;;;;;;8.00;7.00;;;;;19.25;51.62;100621.95;105854;1272;19575;-64
2022/12/16 02:11:17;;;;;;;;;5.00;5.00;;;;;19.26;51.58;100620.92;105862;1285;19469;-65
2022/12/16 02:13:44;;;;;;;;;5.00;5.00;;;;;19.25;51.33;100618.17;105891;1294;19473;-64
2022/12/16 02:16:12;;;;;;;;;4.00;4.00;;;;;19.24;51.30;100624.05;105900;1295;22204;-65
2022/12/16 02:18:39;;;;;;;;;6.00;5.00;;;;;19.24;51.58;100621.30;105876;1279;20030;-65
2022/12/16 02:21:06;;;;;;;;;10.00;7.00;;;;;19.25;51.40;100619.09;105864;1286;19257;-64
2022/12/16 02:23:34;;;;;;;;;8.00;6.33;;;;;19.24;51.56;100624.09;105855;1280;18604;-64
2022/12/16 02:26:02;;;;;;;;;5.00;4.50;;;;;19.24;51.37;100624.92;105872;1280;18488;-64
2022/12/16 02:28:29;;;;;;;;;6.50;6.50;;;;;19.24;51.51;100622.59;105920;1272;19354;-64
2022/12/16 02:30:56;;;;;;;;;5.00;5.00;;;;;19.24;51.42;100625.17;105897;1272;18338;-63
2022/12/16 02:33:24;;;;;;;;;5.00;5.00;;;;;19.24;51.33;100623.91;105817;1295;18473;-64
2022/12/16 02:35:51;;;;;;;;;7.00;7.00;;;;;19.24;51.45;100636.42;105842;1294;20730;-64
2022/12/16 02:38:18;;;;;;;;;6.00;6.00;;;;;19.23;51.43;100634.55;105837;1285;19642;-63
2022/12/16 02:40:46;;;;;;;;;4.00;4.00;;;;;19.23;51.52;100628.37;105875;1286;20178;-63
2022/12/16 02:43:13;;;;;;;;;11.00;7.50;;;;;19.23;51.31;100623.69;105926;1286;19292;-63
2022/12/16 02:45:40;;;;;;;;;4.00;4.00;;;;;19.23;51.44;100624.23;105831;1298;23431;-63
2022/12/16 02:48:08;;;;;;;;;7.00;7.00;;;;;19.22;51.39;100626.23;105822;1280;20244;-63
2022/12/16 02:50:35;;;;;;;;;7.50;7.00;;;;;19.22;51.22;100629.54;105856;1280;19747;-64
2022/12/16 02:53:02;;;;;;;;;6.00;5.00;;;;;19.21;51.53;100628.36;105823;1280;22390;-64
2022/12/16 02:55:30;;;;;;;;;7.00;7.00;;;;;19.21;51.40;100630.69;105778;1286;18504;-65
2022/12/16 02:57:57;;;;;;;;;6.00;6.00;;;;;19.21;51.15;100630.16;105820;1286;21787;-64
2022/12/16 03:00:24;;;;;;;;;5.00;5.00;;;;;19.20;51.26;100632.39;105767;1285;19565;-64
2022/12/16 03:02:52;;;;;;;;;5.00;5.00;;;;;19.20;51.37;100634.23;105743;1280;20085;-64
2022/12/16 03:05:19;;;;;;;;;5.00;5.00;;;;;19.21;51.21;100637.06;105800;1280;19324;-64
2022/12/16 03:07:46;;;;;;;;;7.00;7.00;;;;;19.20;51.12;100635.69;105749;1278;18415;-64
2022/12/16 03:10:14;;;;;;;;;5.00;5.00;;;;;19.21;51.33;100632.19;105745;1294;18537;-64
2022/12/16 03:12:41;;;;;;;;;5.00;5.00;;;;;19.19;51.12;100626.02;105741;1293;20805;-63
2022/12/16 03:15:09;;;;;;;;;6.00;6.00;;;;;19.20;51.48;100626.33;105792;1293;20026;-64
2022/12/16 03:17:36;;;;;;;;;7.00;4.00;;;;;19.20;51.24;100621.42;105765;1280;20041;-63
2022/12/16 03:20:04;;;;;;;;;5.00;5.00;;;;;19.20;51.10;100621.42;105891;1294;19265;-64
2022/12/16 03:22:32;;;;;;;;;7.00;5.00;;;;;19.20;51.22;100619.63;105804;1279;19542;-64
2022/12/16 03:25:00;;;;;;;;;7.00;7.00;;;;;19.19;51.27;100612.13;106033;1294;20037;-65
2022/12/16 03:27:27;;;;;;;;;5.00;4.50;;;;;19.19;51.02;100612.80;105846;1280;20922;-64
2022/12/16 03:29:54;;;;;;;;;7.00;6.00;;;;;19.20;50.94;100605.33;105878;1272;18461;-64
2022/12/16 03:32:22;;;;;;;;;5.00;5.00;;;;;19.19;51.03;100597.63;105866;1279;22901;-65
2022/12/16 03:34:49;;;;;;;;;5.00;5.00;;;;;19.19;51.12;100590.39;105846;1280;20711;-65
2022/12/16 03:37:17;;;;;;;;;10.00;8.00;;;;;19.19;51.27;100590.59;105951;1295;18403;-63
2022/12/16 03:39:44;;;;;;;;;5.00;5.00;;;;;19.19;51.04;100595.45;105869;1280;19945;-65
2022/12/16 03:42:11;;;;;;;;;5.00;5.00;;;;;19.19;51.16;100589.81;105892;1280;19279;-64
2022/12/16 03:44:39;;;;;;;;;6.00;5.00;;;;;19.18;51.21;100587.20;105896;1272;19600;-64
2022/12/16 03:47:06;;;;;;;;;6.33;5.00;;;;;19.19;51.07;100582.78;105912;1294;18399;-63
2022/12/16 03:49:33;;;;;;;;;5.00;4.50;;;;;19.18;51.19;100577.55;105825;1295;21908;-64
2022/12/16 03:52:01;;;;;;;;;7.50;7.00;;;;;19.19;51.17;100573.52;105889;1295;18558;-63
2022/12/16 03:54:28;;;;;;;;;6.00;6.00;;;;;19.18;51.09;100575.76;105887;1280;18705;-64
2022/12/16 03:56:55;;;;;;;;;5.00;5.00;;;;;19.18;51.07;100565.66;105846;1272;20805;-65
2022/12/16 03:59:23;;;;;;;;;7.00;5.00;;;;;19.18;50.87;100573.86;105855;1289;18493;-65
2022/12/16 04:01:50;;;;;;;;;7.50;7.50;;;;;19.18;50.91;100569.30;105875;1286;22211;-63
2022/12/16 04:04:17;;;;;;;;;6.00;5.00;;;;;19.17;51.07;100568.29;105943;1298;24751;-60
2022/12/16 04:06:45;;;;;;;;;7.00;7.00;;;;;19.17;50.75;100573.55;105881;1295;18526;-62
2022/12/16 04:09:12;;;;;;;;;7.00;7.00;;;;;19.18;51.07;100577.29;105863;1280;18487;-64
2022/12/16 04:25:24;;;;;;;;;6.00;5.00;;;;;19.16;51.11;100571.35;105954;1280;21453;-64
2022/12/16 04:27:51;;;;;;;;;5.00;5.00;;;;;19.16;51.07;100571.75;105843;1289;19273;-65
2022/12/16 04:30:19;;;;;;;;;6.00;6.00;;;;;19.16;50.79;100572.77;105897;1285;21465;-63
